Page Field
KFMY : now visible

Airfield :











YOU CAN JOIN US ON...

 
LOGIN :

Register | Disclaimer

   EN    FR    IT 

 









Legend :    VFR   Marginal VFR   IFR   Intensive IFR   Very Intensive IFR
Visi :
Ceiling :
>= 8 km
>= 3000ft
5 to 8 km
1000 to 3000 ft
1500m to 5 km
500 to 1000 ft
800 to 1500m
200 to 500 ft
< 800m
< 200 ft
Symbols :   Thunderstorms  Fog  Heavy snow  Heavy precipitations  Wind > 20 kt






- Airport Elevation : 17 ft


KFMY - Page Field

CURRENT METAR :
  • 291453Z 04004KT 10SM CLR 18/11 A2999 RMK AO2 SLP157 T01830106 53009 $

EXPIRED METARs :
  • 291353Z 06004KT 10SM CLR 16/09 A2998 RMK AO2 SLP152 T01560094 $
  • 291253Z 00000KT 10SM FEW034 12/09 A2997 RMK AO2 SLP151 T01220089 $

TAF KFMY
Valid from the 29 at 12:00 until the 30 at 12:00 UTC


291128Z 2912/3012 06006KT P6SM BKN035
FM291500 13005KT P6SM SCT035 SCT250
FM291900 23007KT P6SM SCT040 BKN100
FM300100 VRB03KT P6SM VCSH SCT020 OVC050
FM300600 VRB03KT P6SM VCSH SCT007 BKN025



MET'MAP, your aeronautical weather chart ! - Copyright ORBIFLY December 2007 - Disclaimer

ORBIFLY MET'MAP TEAM :

Programming & Development : Alexandra Zaïnal
Concept & original design : Baudouin d'Aumeries
Assistance for programming : Marc-Olivier Méhu
Technical & hardware support : Manuel Goepfert

Contact : metmap@orbifly.com




SOURCES & CREDITS :

   NOAA       Earth
Advisory